sensor_id;sensor_type;location;lat;lon;timestamp;temperature;humidity
57390;DHT22;43217;52.694;6.214;2022-08-19T00:02:24;18.00;99.90
57390;DHT22;43217;52.694;6.214;2022-08-19T00:04:50;18.00;99.90
57390;DHT22;43217;52.694;6.214;2022-08-19T00:07:20;17.90;99.90
57390;DHT22;43217;52.694;6.214;2022-08-19T00:09:46;17.90;99.90
57390;DHT22;43217;52.694;6.214;2022-08-19T00:12:13;17.90;99.90
57390;DHT22;43217;52.694;6.214;2022-08-19T00:14:39;17.90;99.90
57390;DHT22;43217;52.694;6.214;2022-08-19T00:17:07;17.90;99.90
57390;DHT22;43217;52.694;6.214;2022-08-19T00:19:33;17.90;99.90
57390;DHT22;43217;52.694;6.214;2022-08-19T00:21:59;17.90;99.90
57390;DHT22;43217;52.694;6.214;2022-08-19T00:24:25;17.80;99.90
57390;DHT22;43217;52.694;6.214;2022-08-19T00:26:51;17.80;99.90
57390;DHT22;43217;52.694;6.214;2022-08-19T00:29:19;17.80;99.90
57390;DHT22;43217;52.694;6.214;2022-08-19T00:31:45;17.80;99.90
57390;DHT22;43217;52.694;6.214;2022-08-19T00:34:13;17.70;99.90
57390;DHT22;43217;52.694;6.214;2022-08-19T00:36:40;17.70;99.90
57390;DHT22;43217;52.694;6.214;2022-08-19T00:39:06;17.70;99.90
57390;DHT22;43217;52.694;6.214;2022-08-19T00:41:32;17.60;99.90
57390;DHT22;43217;52.694;6.214;2022-08-19T00:44:08;17.60;99.90
57390;DHT22;43217;52.694;6.214;2022-08-19T00:46:36;17.60;99.90
57390;DHT22;43217;52.694;6.214;2022-08-19T00:49:09;17.60;99.90
57390;DHT22;43217;52.694;6.214;2022-08-19T00:51:35;17.60;99.90
57390;DHT22;43217;52.694;6.214;2022-08-19T00:54:02;17.60;99.90
57390;DHT22;43217;52.694;6.214;2022-08-19T00:56:29;17.50;99.90
57390;DHT22;43217;52.694;6.214;2022-08-19T00:58:57;17.50;99.90
57390;DHT22;43217;52.694;6.214;2022-08-19T01:01:23;17.50;99.90
57390;DHT22;43217;52.694;6.214;2022-08-19T01:03:51;17.50;99.90
57390;DHT22;43217;52.694;6.214;2022-08-19T01:06:17;17.40;99.90
57390;DHT22;43217;52.694;6.214;2022-08-19T01:08:43;17.40;99.90
57390;DHT22;43217;52.694;6.214;2022-08-19T01:11:09;17.40;99.90
57390;DHT22;43217;52.694;6.214;2022-08-19T01:13:35;17.40;99.90
57390;DHT22;43217;52.694;6.214;2022-08-19T01:16:04;17.40;99.90
57390;DHT22;43217;52.694;6.214;2022-08-19T01:18:32;17.30;99.90
57390;DHT22;43217;52.694;6.214;2022-08-19T01:21:04;17.30;99.90
57390;DHT22;43217;52.694;6.214;2022-08-19T01:23:31;17.30;99.90
57390;DHT22;43217;52.694;6.214;2022-08-19T01:26:12;17.30;99.90
57390;DHT22;43217;52.694;6.214;2022-08-19T01:28:39;17.30;99.90
57390;DHT22;43217;52.694;6.214;2022-08-19T01:31:08;17.30;99.90
57390;DHT22;43217;52.694;6.214;2022-08-19T01:33:37;17.20;99.90
57390;DHT22;43217;52.694;6.214;2022-08-19T01:36:10;17.10;99.90
57390;DHT22;43217;52.694;6.214;2022-08-19T01:38:39;17.10;99.90
57390;DHT22;43217;52.694;6.214;2022-08-19T01:41:05;17.10;99.90
57390;DHT22;43217;52.694;6.214;2022-08-19T01:43:31;17.10;99.90
57390;DHT22;43217;52.694;6.214;2022-08-19T01:45:57;17.10;99.90
57390;DHT22;43217;52.694;6.214;2022-08-19T01:48:23;17.10;99.90
57390;DHT22;43217;52.694;6.214;2022-08-19T01:50:49;17.10;99.90
57390;DHT22;43217;52.694;6.214;2022-08-19T01:53:15;17.10;99.90
57390;DHT22;43217;52.694;6.214;2022-08-19T01:55:42;17.00;99.90
57390;DHT22;43217;52.694;6.214;2022-08-19T01:58:13;17.00;99.90
57390;DHT22;43217;52.694;6.214;2022-08-19T02:00:39;17.00;99.90
57390;DHT22;43217;52.694;6.214;2022-08-19T02:03:05;17.00;99.90
57390;DHT22;43217;52.694;6.214;2022-08-19T02:05:31;17.00;99.90
57390;DHT22;43217;52.694;6.214;2022-08-19T02:07:57;17.00;99.90
57390;DHT22;43217;52.694;6.214;2022-08-19T02:10:24;17.00;99.90
57390;DHT22;43217;52.694;6.214;2022-08-19T02:12:50;17.00;99.90
57390;DHT22;43217;52.694;6.214;2022-08-19T02:15:17;17.00;99.90
57390;DHT22;43217;52.694;6.214;2022-08-19T02:17:44;16.90;99.90
57390;DHT22;43217;52.694;6.214;2022-08-19T02:20:11;16.90;99.90
57390;DHT22;43217;52.694;6.214;2022-08-19T02:22:39;16.90;99.90
57390;DHT22;43217;52.694;6.214;2022-08-19T02:25:07;16.90;99.90
57390;DHT22;43217;52.694;6.214;2022-08-19T02:27:33;16.90;99.90
57390;DHT22;43217;52.694;6.214;2022-08-19T02:29:59;16.90;99.90
57390;DHT22;43217;52.694;6.214;2022-08-19T02:32:26;16.90;99.90
57390;DHT22;43217;52.694;6.214;2022-08-19T02:34:51;16.80;99.90
57390;DHT22;43217;52.694;6.214;2022-08-19T02:37:17;16.80;99.90
57390;DHT22;43217;52.694;6.214;2022-08-19T02:40:12;16.80;99.90
57390;DHT22;43217;52.694;6.214;2022-08-19T02:42:38;16.80;99.90
57390;DHT22;43217;52.694;6.214;2022-08-19T02:45:04;16.80;99.90
57390;DHT22;43217;52.694;6.214;2022-08-19T02:47:30;16.80;99.90
57390;DHT22;43217;52.694;6.214;2022-08-19T02:49:56;16.70;99.90
57390;DHT22;43217;52.694;6.214;2022-08-19T02:52:21;16.70;99.90
57390;DHT22;43217;52.694;6.214;2022-08-19T02:54:48;16.70;99.90
57390;DHT22;43217;52.694;6.214;2022-08-19T02:57:14;16.60;99.90
57390;DHT22;43217;52.694;6.214;2022-08-19T02:59:40;16.60;99.90
57390;DHT22;43217;52.694;6.214;2022-08-19T03:02:06;16.70;99.90
57390;DHT22;43217;52.694;6.214;2022-08-19T03:04:31;16.70;99.90
57390;DHT22;43217;52.694;6.214;2022-08-19T03:06:57;16.70;99.90
57390;DHT22;43217;52.694;6.214;2022-08-19T03:09:22;16.70;99.90
57390;DHT22;43217;52.694;6.214;2022-08-19T03:11:48;16.70;99.90
57390;DHT22;43217;52.694;6.214;2022-08-19T03:14:13;16.70;99.90
57390;DHT22;43217;52.694;6.214;2022-08-19T03:16:43;16.60;99.90
57390;DHT22;43217;52.694;6.214;2022-08-19T03:19:09;16.60;99.90
57390;DHT22;43217;52.694;6.214;2022-08-19T03:21:35;16.50;99.90
57390;DHT22;43217;52.694;6.214;2022-08-19T03:24:04;16.50;99.90
57390;DHT22;43217;52.694;6.214;2022-08-19T03:26:30;16.50;99.90
57390;DHT22;43217;52.694;6.214;2022-08-19T03:28:56;16.50;99.90
57390;DHT22;43217;52.694;6.214;2022-08-19T03:31:23;16.50;99.90
57390;DHT22;43217;52.694;6.214;2022-08-19T03:33:50;16.50;99.90
57390;DHT22;43217;52.694;6.214;2022-08-19T03:36:24;16.50;99.90
57390;DHT22;43217;52.694;6.214;2022-08-19T03:38:53;16.40;99.90
57390;DHT22;43217;52.694;6.214;2022-08-19T03:41:35;16.40;99.90
57390;DHT22;43217;52.694;6.214;2022-08-19T03:44:01;16.40;99.90
57390;DHT22;43217;52.694;6.214;2022-08-19T03:46:29;16.30;99.90
57390;DHT22;43217;52.694;6.214;2022-08-19T03:48:57;16.30;99.90
57390;DHT22;43217;52.694;6.214;2022-08-19T03:51:29;16.30;99.90
57390;DHT22;43217;52.694;6.214;2022-08-19T03:53:57;16.20;99.90
57390;DHT22;43217;52.694;6.214;2022-08-19T03:56:23;16.20;99.90
57390;DHT22;43217;52.694;6.214;2022-08-19T03:58:51;16.10;99.90
57390;DHT22;43217;52.694;6.214;2022-08-19T04:01:21;16.10;99.90
57390;DHT22;43217;52.694;6.214;2022-08-19T04:03:48;16.10;99.90
57390;DHT22;43217;52.694;6.214;2022-08-19T04:06:20;16.00;99.90
57390;DHT22;43217;52.694;6.214;2022-08-19T04:08:49;16.00;99.90
57390;DHT22;43217;52.694;6.214;2022-08-19T04:11:20;16.00;99.90
57390;DHT22;43217;52.694;6.214;2022-08-19T04:13:50;16.00;99.90
57390;DHT22;43217;52.694;6.214;2022-08-19T04:16:17;16.00;99.90
57390;DHT22;43217;52.694;6.214;2022-08-19T04:18:43;16.00;99.90
57390;DHT22;43217;52.694;6.214;2022-08-19T04:21:17;16.00;99.90
57390;DHT22;43217;52.694;6.214;2022-08-19T04:23:42;15.90;99.90
57390;DHT22;43217;52.694;6.214;2022-08-19T04:26:16;15.90;99.90
57390;DHT22;43217;52.694;6.214;2022-08-19T04:28:44;15.90;99.90
57390;DHT22;43217;52.694;6.214;2022-08-19T04:31:16;15.90;99.90
57390;DHT22;43217;52.694;6.214;2022-08-19T04:33:42;15.90;99.90
57390;DHT22;43217;52.694;6.214;2022-08-19T04:36:18;15.90;99.90
57390;DHT22;43217;52.694;6.214;2022-08-19T04:38:46;15.90;99.90
57390;DHT22;43217;52.694;6.214;2022-08-19T04:41:12;15.90;99.90
57390;DHT22;43217;52.694;6.214;2022-08-19T04:43:56;15.90;99.90
57390;DHT22;43217;52.694;6.214;2022-08-19T04:46:22;15.80;99.90
57390;DHT22;43217;52.694;6.214;2022-08-19T04:48:47;15.80;99.90
57390;DHT22;43217;52.694;6.214;2022-08-19T04:51:13;15.90;99.90
57390;DHT22;43217;52.694;6.214;2022-08-19T04:53:41;15.90;99.90
57390;DHT22;43217;52.694;6.214;2022-08-19T04:56:10;15.90;99.90
57390;DHT22;43217;52.694;6.214;2022-08-19T04:58:37;15.90;99.90
57390;DHT22;43217;52.694;6.214;2022-08-19T05:01:04;15.90;99.90
57390;DHT22;43217;52.694;6.214;2022-08-19T05:03:30;15.90;99.90
57390;DHT22;43217;52.694;6.214;2022-08-19T05:06:09;15.90;99.90
57390;DHT22;43217;52.694;6.214;2022-08-19T05:08:37;16.00;99.90
57390;DHT22;43217;52.694;6.214;2022-08-19T05:14:04;16.20;99.90
57390;DHT22;43217;52.694;6.214;2022-08-19T05:16:30;16.20;99.90
57390;DHT22;43217;52.694;6.214;2022-08-19T05:18:56;16.20;99.90
57390;DHT22;43217;52.694;6.214;2022-08-19T05:21:42;16.30;99.90
57390;DHT22;43217;52.694;6.214;2022-08-19T05:24:27;16.40;99.90
57390;DHT22;43217;52.694;6.214;2022-08-19T05:26:54;16.50;99.90
57390;DHT22;43217;52.694;6.214;2022-08-19T05:29:23;16.70;99.90
57390;DHT22;43217;52.694;6.214;2022-08-19T05:31:50;16.70;99.90
57390;DHT22;43217;52.694;6.214;2022-08-19T05:34:18;16.80;99.90
57390;DHT22;43217;52.694;6.214;2022-08-19T05:36:45;16.80;99.90
57390;DHT22;43217;52.694;6.214;2022-08-19T05:39:13;16.80;99.90
57390;DHT22;43217;52.694;6.214;2022-08-19T05:41:49;16.80;99.90
57390;DHT22;43217;52.694;6.214;2022-08-19T05:44:15;16.90;99.90
57390;DHT22;43217;52.694;6.214;2022-08-19T05:46:44;17.00;99.90
57390;DHT22;43217;52.694;6.214;2022-08-19T05:49:13;17.10;99.90
57390;DHT22;43217;52.694;6.214;2022-08-19T05:51:39;17.10;99.90
57390;DHT22;43217;52.694;6.214;2022-08-19T05:54:06;17.20;99.90
57390;DHT22;43217;52.694;6.214;2022-08-19T05:56:33;17.30;99.90
57390;DHT22;43217;52.694;6.214;2022-08-19T05:59:02;17.20;99.90
57390;DHT22;43217;52.694;6.214;2022-08-19T06:01:27;17.20;99.90
57390;DHT22;43217;52.694;6.214;2022-08-19T06:03:53;17.40;99.90
57390;DHT22;43217;52.694;6.214;2022-08-19T06:06:19;17.60;99.90
57390;DHT22;43217;52.694;6.214;2022-08-19T06:08:45;17.70;99.90
57390;DHT22;43217;52.694;6.214;2022-08-19T06:11:34;18.10;99.90
57390;DHT22;43217;52.694;6.214;2022-08-19T06:14:05;18.50;99.90
57390;DHT22;43217;52.694;6.214;2022-08-19T06:16:37;18.90;99.90
57390;DHT22;43217;52.694;6.214;2022-08-19T06:19:06;19.30;99.90
57390;DHT22;43217;52.694;6.214;2022-08-19T06:21:34;19.40;99.90
57390;DHT22;43217;52.694;6.214;2022-08-19T06:24:02;19.30;99.90
57390;DHT22;43217;52.694;6.214;2022-08-19T06:26:29;19.30;99.90
57390;DHT22;43217;52.694;6.214;2022-08-19T06:28:55;19.40;99.90
57390;DHT22;43217;52.694;6.214;2022-08-19T06:31:24;19.60;99.90
57390;DHT22;43217;52.694;6.214;2022-08-19T06:33:50;19.90;99.90
57390;DHT22;43217;52.694;6.214;2022-08-19T06:36:27;20.10;99.90
57390;DHT22;43217;52.694;6.214;2022-08-19T06:38:55;20.40;99.90
57390;DHT22;43217;52.694;6.214;2022-08-19T06:41:28;20.60;99.90
57390;DHT22;43217;52.694;6.214;2022-08-19T06:43:54;21.20;99.90
57390;DHT22;43217;52.694;6.214;2022-08-19T06:46:20;21.90;99.90
57390;DHT22;43217;52.694;6.214;2022-08-19T06:48:47;22.90;99.90
57390;DHT22;43217;52.694;6.214;2022-08-19T06:51:14;23.80;99.90
57390;DHT22;43217;52.694;6.214;2022-08-19T06:53:41;24.50;99.90
57390;DHT22;43217;52.694;6.214;2022-08-19T06:56:16;25.20;99.90
57390;DHT22;43217;52.694;6.214;2022-08-19T06:58:42;25.50;99.90
57390;DHT22;43217;52.694;6.214;2022-08-19T07:01:09;25.30;99.90
57390;DHT22;43217;52.694;6.214;2022-08-19T07:03:40;24.90;99.90
57390;DHT22;43217;52.694;6.214;2022-08-19T07:06:08;25.40;99.90
57390;DHT22;43217;52.694;6.214;2022-08-19T07:08:36;26.00;99.90
57390;DHT22;43217;52.694;6.214;2022-08-19T07:11:06;26.10;99.90
57390;DHT22;43217;52.694;6.214;2022-08-19T07:13:32;26.60;99.90
57390;DHT22;43217;52.694;6.214;2022-08-19T07:16:10;27.10;99.90
57390;DHT22;43217;52.694;6.214;2022-08-19T07:18:36;27.60;99.90
57390;DHT22;43217;52.694;6.214;2022-08-19T07:21:26;27.90;99.90
57390;DHT22;43217;52.694;6.214;2022-08-19T07:23:54;28.10;99.90
57390;DHT22;43217;52.694;6.214;2022-08-19T07:26:28;28.00;99.90
57390;DHT22;43217;52.694;6.214;2022-08-19T07:28:56;28.30;99.90
57390;DHT22;43217;52.694;6.214;2022-08-19T07:31:25;28.60;99.90
57390;DHT22;43217;52.694;6.214;2022-08-19T07:33:52;29.00;99.90
57390;DHT22;43217;52.694;6.214;2022-08-19T07:36:23;29.20;99.00
57390;DHT22;43217;52.694;6.214;2022-08-19T07:38:50;29.00;96.90
57390;DHT22;43217;52.694;6.214;2022-08-19T07:41:19;29.20;98.20
57390;DHT22;43217;52.694;6.214;2022-08-19T07:43:46;29.40;97.60
57390;DHT22;43217;52.694;6.214;2022-08-19T07:46:12;29.70;96.60
57390;DHT22;43217;52.694;6.214;2022-08-19T07:48:40;30.00;95.30
57390;DHT22;43217;52.694;6.214;2022-08-19T07:51:06;29.90;93.40
57390;DHT22;43217;52.694;6.214;2022-08-19T07:53:34;29.60;93.50
57390;DHT22;43217;52.694;6.214;2022-08-19T07:55:59;29.60;93.70
57390;DHT22;43217;52.694;6.214;2022-08-19T07:58:35;29.50;94.20
57390;DHT22;43217;52.694;6.214;2022-08-19T08:01:02;29.60;93.00
57390;DHT22;43217;52.694;6.214;2022-08-19T08:03:28;29.20;95.00
57390;DHT22;43217;52.694;6.214;2022-08-19T08:06:13;29.60;94.50
57390;DHT22;43217;52.694;6.214;2022-08-19T08:08:57;30.20;91.60
57390;DHT22;43217;52.694;6.214;2022-08-19T08:11:52;30.60;86.80
57390;DHT22;43217;52.694;6.214;2022-08-19T08:14:23;30.80;82.60
57390;DHT22;43217;52.694;6.214;2022-08-19T08:16:49;30.40;82.30
57390;DHT22;43217;52.694;6.214;2022-08-19T08:19:18;30.10;83.30
57390;DHT22;43217;52.694;6.214;2022-08-19T08:21:44;29.60;86.40
57390;DHT22;43217;52.694;6.214;2022-08-19T08:24:11;29.60;88.70
57390;DHT22;43217;52.694;6.214;2022-08-19T08:26:37;30.00;88.90
57390;DHT22;43217;52.694;6.214;2022-08-19T08:29:03;30.50;87.20
57390;DHT22;43217;52.694;6.214;2022-08-19T08:31:28;30.90;84.40
57390;DHT22;43217;52.694;6.214;2022-08-19T08:33:54;31.20;81.50
57390;DHT22;43217;52.694;6.214;2022-08-19T08:36:20;30.70;79.80
57390;DHT22;43217;52.694;6.214;2022-08-19T08:38:47;31.00;79.90
57390;DHT22;43217;52.694;6.214;2022-08-19T08:43:55;31.70;75.90
57390;DHT22;43217;52.694;6.214;2022-08-19T08:47:03;31.90;74.70
57390;DHT22;43217;52.694;6.214;2022-08-19T08:49:50;32.00;71.70
57390;DHT22;43217;52.694;6.214;2022-08-19T08:52:26;32.00;70.60
57390;DHT22;43217;52.694;6.214;2022-08-19T08:54:55;31.40;70.70
57390;DHT22;43217;52.694;6.214;2022-08-19T08:57:32;30.90;73.80
57390;DHT22;43217;52.694;6.214;2022-08-19T09:00:03;31.10;75.60
57390;DHT22;43217;52.694;6.214;2022-08-19T09:02:31;31.40;75.00
57390;DHT22;43217;52.694;6.214;2022-08-19T09:04:57;31.20;73.50
57390;DHT22;43217;52.694;6.214;2022-08-19T09:07:49;31.30;74.00
57390;DHT22;43217;52.694;6.214;2022-08-19T09:10:38;31.50;72.90
57390;DHT22;43217;52.694;6.214;2022-08-19T09:13:16;31.70;72.30
57390;DHT22;43217;52.694;6.214;2022-08-19T09:16:00;31.50;72.10
57390;DHT22;43217;52.694;6.214;2022-08-19T09:19:01;31.50;73.00
57390;DHT22;43217;52.694;6.214;2022-08-19T09:21:27;31.50;72.00
57390;DHT22;43217;52.694;6.214;2022-08-19T09:23:53;31.20;73.40
57390;DHT22;43217;52.694;6.214;2022-08-19T09:26:21;31.40;71.20
57390;DHT22;43217;52.694;6.214;2022-08-19T09:28:49;31.40;71.20
57390;DHT22;43217;52.694;6.214;2022-08-19T09:31:20;31.50;72.30
57390;DHT22;43217;52.694;6.214;2022-08-19T09:33:47;31.50;71.60
57390;DHT22;43217;52.694;6.214;2022-08-19T09:36:16;31.30;70.70
57390;DHT22;43217;52.694;6.214;2022-08-19T09:38:42;31.00;71.00
57390;DHT22;43217;52.694;6.214;2022-08-19T09:41:16;30.40;71.70
57390;DHT22;43217;52.694;6.214;2022-08-19T09:43:44;30.00;72.80
57390;DHT22;43217;52.694;6.214;2022-08-19T09:46:10;29.60;75.30
57390;DHT22;43217;52.694;6.214;2022-08-19T09:48:38;29.20;77.50
57390;DHT22;43217;52.694;6.214;2022-08-19T09:51:13;29.00;79.50
57390;DHT22;43217;52.694;6.214;2022-08-19T09:53:44;28.90;82.80
57390;DHT22;43217;52.694;6.214;2022-08-19T09:56:11;28.80;85.20
57390;DHT22;43217;52.694;6.214;2022-08-19T09:58:37;28.90;86.60
57390;DHT22;43217;52.694;6.214;2022-08-19T10:01:04;28.90;85.20
57390;DHT22;43217;52.694;6.214;2022-08-19T10:03:31;28.90;86.70
57390;DHT22;43217;52.694;6.214;2022-08-19T10:05:58;28.80;86.40
57390;DHT22;43217;52.694;6.214;2022-08-19T10:08:36;28.60;88.40
57390;DHT22;43217;52.694;6.214;2022-08-19T10:11:03;28.50;90.30
57390;DHT22;43217;52.694;6.214;2022-08-19T10:13:30;28.20;91.00
57390;DHT22;43217;52.694;6.214;2022-08-19T10:16:07;28.00;92.00
57390;DHT22;43217;52.694;6.214;2022-08-19T10:18:33;27.70;93.40
57390;DHT22;43217;52.694;6.214;2022-08-19T10:21:24;27.70;95.40
57390;DHT22;43217;52.694;6.214;2022-08-19T10:23:51;27.60;95.40
57390;DHT22;43217;52.694;6.214;2022-08-19T10:26:24;27.60;96.20
57390;DHT22;43217;52.694;6.214;2022-08-19T10:28:50;27.60;95.80
57390;DHT22;43217;52.694;6.214;2022-08-19T10:31:19;27.60;95.30
57390;DHT22;43217;52.694;6.214;2022-08-19T10:33:46;27.70;94.60
57390;DHT22;43217;52.694;6.214;2022-08-19T10:36:19;27.30;95.70
57390;DHT22;43217;52.694;6.214;2022-08-19T10:38:47;27.20;95.90
57390;DHT22;43217;52.694;6.214;2022-08-19T10:41:20;27.40;95.30
57390;DHT22;43217;52.694;6.214;2022-08-19T10:43:50;27.50;96.00
57390;DHT22;43217;52.694;6.214;2022-08-19T10:46:18;27.50;95.40
57390;DHT22;43217;52.694;6.214;2022-08-19T10:48:44;27.50;95.10
57390;DHT22;43217;52.694;6.214;2022-08-19T10:51:11;27.60;94.90
57390;DHT22;43217;52.694;6.214;2022-08-19T10:53:56;27.40;93.90
57390;DHT22;43217;52.694;6.214;2022-08-19T10:56:22;27.40;95.40
57390;DHT22;43217;52.694;6.214;2022-08-19T10:59:07;27.40;95.10
57390;DHT22;43217;52.694;6.214;2022-08-19T11:01:33;27.40;94.90
57390;DHT22;43217;52.694;6.214;2022-08-19T11:04:04;27.40;95.40
57390;DHT22;43217;52.694;6.214;2022-08-19T11:06:31;27.40;95.80
57390;DHT22;43217;52.694;6.214;2022-08-19T11:08:57;27.50;95.20
57390;DHT22;43217;52.694;6.214;2022-08-19T11:11:23;27.60;95.70
57390;DHT22;43217;52.694;6.214;2022-08-19T11:13:53;27.60;95.30
57390;DHT22;43217;52.694;6.214;2022-08-19T11:16:22;27.60;95.60
57390;DHT22;43217;52.694;6.214;2022-08-19T11:18:50;27.60;96.00
57390;DHT22;43217;52.694;6.214;2022-08-19T11:21:19;27.60;95.80
57390;DHT22;43217;52.694;6.214;2022-08-19T11:23:47;27.60;96.50
57390;DHT22;43217;52.694;6.214;2022-08-19T11:26:13;27.60;97.90
57390;DHT22;43217;52.694;6.214;2022-08-19T11:28:39;27.50;95.40
57390;DHT22;43217;52.694;6.214;2022-08-19T11:31:17;27.40;94.30
57390;DHT22;43217;52.694;6.214;2022-08-19T11:33:44;27.40;94.20
57390;DHT22;43217;52.694;6.214;2022-08-19T11:36:10;27.40;94.90
57390;DHT22;43217;52.694;6.214;2022-08-19T11:38:36;27.40;96.80
57390;DHT22;43217;52.694;6.214;2022-08-19T11:41:06;27.50;96.40
57390;DHT22;43217;52.694;6.214;2022-08-19T11:43:33;27.50;97.10
57390;DHT22;43217;52.694;6.214;2022-08-19T11:45:59;27.60;96.80
57390;DHT22;43217;52.694;6.214;2022-08-19T11:48:25;27.50;96.10
57390;DHT22;43217;52.694;6.214;2022-08-19T11:50:53;27.50;96.20
57390;DHT22;43217;52.694;6.214;2022-08-19T11:53:20;27.50;96.30
57390;DHT22;43217;52.694;6.214;2022-08-19T11:55:47;27.50;97.10
57390;DHT22;43217;52.694;6.214;2022-08-19T11:58:13;27.60;96.70
57390;DHT22;43217;52.694;6.214;2022-08-19T12:00:40;27.60;95.80
57390;DHT22;43217;52.694;6.214;2022-08-19T12:03:07;27.80;95.90
57390;DHT22;43217;52.694;6.214;2022-08-19T12:05:32;27.80;95.60
57390;DHT22;43217;52.694;6.214;2022-08-19T12:07:58;27.70;94.40
57390;DHT22;43217;52.694;6.214;2022-08-19T12:10:24;27.70;94.70
57390;DHT22;43217;52.694;6.214;2022-08-19T12:12:50;27.70;97.00
57390;DHT22;43217;52.694;6.214;2022-08-19T12:15:15;27.80;96.00
57390;DHT22;43217;52.694;6.214;2022-08-19T12:17:42;27.80;95.90
57390;DHT22;43217;52.694;6.214;2022-08-19T12:20:09;27.90;94.80
57390;DHT22;43217;52.694;6.214;2022-08-19T12:22:36;27.80;93.90
57390;DHT22;43217;52.694;6.214;2022-08-19T12:25:03;27.70;94.20
57390;DHT22;43217;52.694;6.214;2022-08-19T12:27:29;27.70;94.20
57390;DHT22;43217;52.694;6.214;2022-08-19T12:29:54;27.70;93.90
57390;DHT22;43217;52.694;6.214;2022-08-19T12:32:20;27.80;94.70
57390;DHT22;43217;52.694;6.214;2022-08-19T12:34:46;27.70;95.10
57390;DHT22;43217;52.694;6.214;2022-08-19T12:37:13;27.70;96.00
57390;DHT22;43217;52.694;6.214;2022-08-19T12:39:40;27.80;95.50
57390;DHT22;43217;52.694;6.214;2022-08-19T12:42:07;27.90;94.00
57390;DHT22;43217;52.694;6.214;2022-08-19T12:44:35;27.80;94.20
57390;DHT22;43217;52.694;6.214;2022-08-19T12:47:01;27.90;94.10
57390;DHT22;43217;52.694;6.214;2022-08-19T12:49:29;27.90;95.00
57390;DHT22;43217;52.694;6.214;2022-08-19T12:51:56;27.90;95.20
57390;DHT22;43217;52.694;6.214;2022-08-19T12:54:23;28.00;93.60
57390;DHT22;43217;52.694;6.214;2022-08-19T12:56:49;27.70;92.80
57390;DHT22;43217;52.694;6.214;2022-08-19T12:59:15;27.50;95.00
57390;DHT22;43217;52.694;6.214;2022-08-19T13:01:43;27.50;96.40
57390;DHT22;43217;52.694;6.214;2022-08-19T13:04:09;27.40;95.30
57390;DHT22;43217;52.694;6.214;2022-08-19T13:06:36;27.40;94.00
57390;DHT22;43217;52.694;6.214;2022-08-19T13:09:03;27.30;95.30
57390;DHT22;43217;52.694;6.214;2022-08-19T13:11:29;27.40;96.10
57390;DHT22;43217;52.694;6.214;2022-08-19T13:13:58;27.50;98.60
57390;DHT22;43217;52.694;6.214;2022-08-19T13:16:23;27.60;97.80
57390;DHT22;43217;52.694;6.214;2022-08-19T13:18:50;27.60;96.60
57390;DHT22;43217;52.694;6.214;2022-08-19T13:21:20;27.70;96.60
57390;DHT22;43217;52.694;6.214;2022-08-19T13:23:46;27.70;97.20
57390;DHT22;43217;52.694;6.214;2022-08-19T13:26:12;27.80;96.40
57390;DHT22;43217;52.694;6.214;2022-08-19T13:28:39;27.80;97.30
57390;DHT22;43217;52.694;6.214;2022-08-19T13:31:26;27.80;96.60
57390;DHT22;43217;52.694;6.214;2022-08-19T13:34:10;27.80;95.60
57390;DHT22;43217;52.694;6.214;2022-08-19T13:36:37;27.80;95.90
57390;DHT22;43217;52.694;6.214;2022-08-19T13:39:04;27.70;96.20
57390;DHT22;43217;52.694;6.214;2022-08-19T13:41:30;27.60;97.30
57390;DHT22;43217;52.694;6.214;2022-08-19T13:43:56;27.60;97.70
57390;DHT22;43217;52.694;6.214;2022-08-19T13:46:22;27.50;99.00
57390;DHT22;43217;52.694;6.214;2022-08-19T13:48:48;27.40;99.90
57390;DHT22;43217;52.694;6.214;2022-08-19T13:51:16;27.40;99.90
57390;DHT22;43217;52.694;6.214;2022-08-19T13:53:42;27.30;99.90
57390;DHT22;43217;52.694;6.214;2022-08-19T13:56:11;27.40;99.90
57390;DHT22;43217;52.694;6.214;2022-08-19T13:58:37;27.60;99.80
57390;DHT22;43217;52.694;6.214;2022-08-19T14:01:04;27.70;99.30
57390;DHT22;43217;52.694;6.214;2022-08-19T14:03:30;27.60;99.60
57390;DHT22;43217;52.694;6.214;2022-08-19T14:05:56;27.50;99.70
57390;DHT22;43217;52.694;6.214;2022-08-19T14:08:22;27.30;99.90
57390;DHT22;43217;52.694;6.214;2022-08-19T14:10:48;27.20;99.90
57390;DHT22;43217;52.694;6.214;2022-08-19T14:13:18;27.10;99.90
57390;DHT22;43217;52.694;6.214;2022-08-19T14:15:45;27.00;99.90
57390;DHT22;43217;52.694;6.214;2022-08-19T14:18:13;26.80;99.90
57390;DHT22;43217;52.694;6.214;2022-08-19T14:20:39;26.80;99.90
57390;DHT22;43217;52.694;6.214;2022-08-19T14:23:05;26.70;99.90
57390;DHT22;43217;52.694;6.214;2022-08-19T14:25:31;26.70;99.90
57390;DHT22;43217;52.694;6.214;2022-08-19T14:27:58;26.60;99.90
57390;DHT22;43217;52.694;6.214;2022-08-19T14:30:29;26.60;99.90
57390;DHT22;43217;52.694;6.214;2022-08-19T14:32:58;26.60;99.90
57390;DHT22;43217;52.694;6.214;2022-08-19T14:35:24;26.50;99.90
57390;DHT22;43217;52.694;6.214;2022-08-19T14:37:51;26.50;99.90
57390;DHT22;43217;52.694;6.214;2022-08-19T14:40:25;26.40;99.90
57390;DHT22;43217;52.694;6.214;2022-08-19T14:42:56;26.30;99.90
57390;DHT22;43217;52.694;6.214;2022-08-19T14:45:26;26.30;99.90
57390;DHT22;43217;52.694;6.214;2022-08-19T14:47:52;26.20;99.90
57390;DHT22;43217;52.694;6.214;2022-08-19T14:50:18;26.20;99.90
57390;DHT22;43217;52.694;6.214;2022-08-19T14:52:45;26.20;99.90
57390;DHT22;43217;52.694;6.214;2022-08-19T14:55:11;26.10;99.90
57390;DHT22;43217;52.694;6.214;2022-08-19T14:57:37;26.10;99.90
57390;DHT22;43217;52.694;6.214;2022-08-19T15:00:04;26.10;99.90
57390;DHT22;43217;52.694;6.214;2022-08-19T15:02:30;26.10;99.90
57390;DHT22;43217;52.694;6.214;2022-08-19T15:04:55;26.20;99.90
57390;DHT22;43217;52.694;6.214;2022-08-19T15:07:21;26.10;99.90
57390;DHT22;43217;52.694;6.214;2022-08-19T15:09:49;26.10;99.90
57390;DHT22;43217;52.694;6.214;2022-08-19T15:12:16;26.10;99.90
57390;DHT22;43217;52.694;6.214;2022-08-19T15:14:41;26.00;99.90
57390;DHT22;43217;52.694;6.214;2022-08-19T15:17:15;26.00;99.90
57390;DHT22;43217;52.694;6.214;2022-08-19T15:19:41;26.00;99.90
57390;DHT22;43217;52.694;6.214;2022-08-19T15:22:07;25.90;99.90
57390;DHT22;43217;52.694;6.214;2022-08-19T15:24:32;25.90;99.90
57390;DHT22;43217;52.694;6.214;2022-08-19T15:26:58;25.80;99.90
57390;DHT22;43217;52.694;6.214;2022-08-19T15:29:24;25.80;99.90
57390;DHT22;43217;52.694;6.214;2022-08-19T15:31:51;25.70;99.90
57390;DHT22;43217;52.694;6.214;2022-08-19T15:34:21;25.70;99.90
57390;DHT22;43217;52.694;6.214;2022-08-19T15:36:46;25.70;99.90
57390;DHT22;43217;52.694;6.214;2022-08-19T15:39:12;25.70;99.90
57390;DHT22;43217;52.694;6.214;2022-08-19T15:41:38;25.60;99.90
57390;DHT22;43217;52.694;6.214;2022-08-19T15:44:13;25.60;99.90
57390;DHT22;43217;52.694;6.214;2022-08-19T15:46:42;25.70;99.90